Time;durP1;ratioP1;P1;durP2;ratioP2;P2;SDS_P1;SDS_P2;PMS_P1;PMS_P2;Temp;Humidity;BMP_temperature;BMP_pressure;BME280_temperature;BME280_humidity;BME280_pressure;Samples;Min_cycle;Max_cycle;Signal;HPM_P1;HPM_P2
2022/10/14 00:01:59;;;;;;;28.23;19.02;;;;;;;10.84;80.64;100911.59;4969188;28;20058;-64
2022/10/14 00:04:26;;;;;;;32.50;20.38;;;;;;;10.85;80.66;100912.44;4969487;28;20499;-65
2022/10/14 00:06:53;;;;;;;30.58;19.88;;;;;;;10.84;80.49;100908.97;4974724;28;20061;-65
2022/10/14 00:09:20;;;;;;;29.33;19.48;;;;;;;10.87;79.98;100908.81;4967087;28;20055;-63
2022/10/14 00:11:48;;;;;;;29.23;19.75;;;;;;;10.89;79.87;100903.44;4970683;28;20534;-64
2022/10/14 00:14:18;;;;;;;28.85;19.38;;;;;;;10.90;79.73;100894.63;4936688;28;20042;-65
2022/10/14 00:16:46;;;;;;;31.02;20.30;;;;;;;10.90;79.88;100897.25;4967261;28;20057;-62
2022/10/14 00:19:14;;;;;;;25.50;18.20;;;;;;;10.89;79.70;100892.91;4967846;28;20046;-63
2022/10/14 00:21:43;;;;;;;28.33;20.15;;;;;;;10.89;79.74;100895.53;4961060;28;20452;-63
2022/10/14 00:24:11;;;;;;;33.50;19.83;;;;;;;10.82;80.43;100891.56;4968789;28;20058;-62
2022/10/14 00:26:40;;;;;;;31.20;19.30;;;;;;;10.82;80.38;100891.56;4970824;28;20081;-62
2022/10/14 00:29:13;;;;;;;31.30;19.45;;;;;;;10.84;81.41;100893.16;4939361;28;20051;-63
2022/10/14 00:31:40;;;;;;;27.40;18.73;;;;;;;10.87;81.72;100893.00;4968019;28;20047;-63
2022/10/14 00:34:07;;;;;;;27.88;18.48;;;;;;;10.88;81.51;100893.84;4967989;28;20102;-63
2022/10/14 00:36:34;;;;;;;28.55;18.23;;;;;;;10.85;80.76;100894.88;4969307;28;20055;-62
2022/10/14 00:39:01;;;;;;;25.55;18.38;;;;;;;10.87;80.75;100897.41;4963422;28;20132;-64
2022/10/14 00:41:31;;;;;;;27.25;19.13;;;;;;;10.86;80.68;100893.09;4962412;28;20039;-64
2022/10/14 00:44:24;;;;;;;28.63;19.77;;;;;;;10.85;80.67;100897.50;4958960;28;20046;-62
2022/10/14 00:46:51;;;;;;;27.98;19.10;;;;;;;10.80;80.66;100888.16;4968001;28;20443;-63
2022/10/14 00:49:19;;;;;;;28.88;18.33;;;;;;;10.74;81.04;100891.13;4960667;28;20752;-65
2022/10/14 00:51:53;;;;;;;24.60;17.05;;;;;;;10.70;81.12;100890.44;4951351;28;20500;-62
2022/10/14 00:54:23;;;;;;;34.17;20.15;;;;;;;10.69;81.09;100888.75;5021361;23;20049;-85
2022/10/14 00:56:50;;;;;;;29.02;18.10;;;;;;;10.66;80.96;100891.53;5025155;28;20052;-84
2022/10/14 00:59:17;;;;;;;26.45;17.42;;;;;;;10.62;81.30;100884.75;5007648;28;20042;-85
2022/10/14 01:01:45;;;;;;;30.45;18.02;;;;;;;10.57;80.99;100882.38;4990231;28;20053;-85
2022/10/14 01:04:12;;;;;;;28.02;19.67;;;;;;;10.51;81.49;100890.59;5006268;28;20045;-85
2022/10/14 01:07:13;;;;;;;28.10;19.60;;;;;;;10.38;82.30;100887.78;4984250;28;20042;-86
2022/10/14 01:09:52;;;;;;;28.00;19.50;;;;;;;10.38;82.26;100886.94;5004965;28;20053;-85
2022/10/14 01:12:44;;;;;;;26.17;19.42;;;;;;;10.42;81.87;100882.38;4984316;28;20069;-82
2022/10/14 01:15:37;;;;;;;26.02;18.77;;;;;;;10.40;81.79;100882.44;5009161;28;20120;-83
2022/10/14 01:18:33;;;;;;;28.98;18.25;;;;;;;10.41;81.43;100872.78;4994528;28;20050;-85
2022/10/14 01:21:07;;;;;;;29.65;20.27;;;;;;;10.30;82.12;100878.59;5000836;28;20046;-85
2022/10/14 01:23:45;;;;;;;27.33;18.95;;;;;;;10.28;81.97;100872.59;5008844;28;20042;-84
2022/10/14 01:26:15;;;;;;;27.35;18.92;;;;;;;10.23;82.11;100877.22;4998849;28;20088;-83
2022/10/14 01:28:56;;;;;;;27.15;18.08;;;;;;;10.25;82.08;100878.00;5002566;28;20049;-83
2022/10/14 01:31:27;;;;;;;27.52;17.67;;;;;;;10.24;82.08;100874.53;4987172;28;20580;-87
2022/10/14 01:34:01;;;;;;;29.23;18.48;;;;;;;10.26;81.80;100869.16;5003319;28;20117;-87
2022/10/14 01:36:32;;;;;;;28.67;17.98;;;;;;;10.26;81.80;100875.28;5004629;28;20112;-85
2022/10/14 01:39:14;;;;;;;29.95;20.13;;;;;;;10.26;81.63;100867.38;5007158;28;20089;-87
2022/10/14 01:41:48;;;;;;;28.20;19.20;;;;;;;10.25;81.70;100867.47;5015559;28;20041;-85
2022/10/14 01:44:16;;;;;;;23.88;18.40;;;;;;;10.23;81.60;100871.97;4994557;28;20062;-86
2022/10/14 01:46:47;;;;;;;22.58;17.65;;;;;;;10.18;82.04;100866.94;5008091;28;20022;-87
2022/10/14 01:49:57;;;;;;;26.52;17.90;;;;;;;10.15;82.11;100860.03;4995728;28;20039;-86
2022/10/14 01:52:27;;;;;;;24.45;17.25;;;;;;;10.17;81.57;100859.09;5000950;28;20425;-86
2022/10/14 01:54:58;;;;;;;25.40;17.33;;;;;;;10.21;81.29;100861.50;5010677;28;20122;-86
2022/10/14 01:57:31;;;;;;;27.02;18.45;;;;;;;10.23;81.31;100867.53;4977701;28;20048;-86
2022/10/14 02:00:04;;;;;;;24.85;17.08;;;;;;;10.22;81.22;100857.97;5009635;28;20037;-87
2022/10/14 02:02:35;;;;;;;30.15;18.50;;;;;;;10.23;81.36;100858.81;5018418;28;20061;-86
2022/10/14 02:05:09;;;;;;;25.88;18.40;;;;;;;10.18;81.23;100855.53;4999926;28;20053;-87
2022/10/14 02:07:43;;;;;;;25.77;17.55;;;;;;;10.15;81.68;100861.84;4981055;28;20046;-85
2022/10/14 02:10:45;;;;;;;29.45;18.42;;;;;;;9.98;82.95;100861.88;4993622;28;20045;-87
2022/10/14 02:13:51;;;;;;;27.80;19.10;;;;;;;9.93;83.09;100856.00;4993629;28;20052;-86
2022/10/14 02:16:26;;;;;;;27.27;19.50;;;;;;;9.95;83.45;100857.63;4995479;28;20050;-85
2022/10/14 02:19:02;;;;;;;23.27;17.05;;;;;;;9.98;83.35;100860.09;5015525;28;20046;-85
2022/10/14 02:21:40;;;;;;;26.50;17.25;;;;;;;10.00;83.11;100865.28;4994458;28;20128;-86
2022/10/14 02:24:29;;;;;;;25.70;17.50;;;;;;;10.00;83.23;100860.88;4994235;28;20042;-85
2022/10/14 02:26:59;;;;;;;28.67;19.02;;;;;;;9.98;83.37;100867.13;5007041;28;20054;-87
2022/10/14 02:29:28;;;;;;;30.33;19.27;;;;;;;9.96;82.99;100863.75;4991312;28;20106;-86
2022/10/14 02:31:56;;;;;;;26.80;17.52;;;;;;;9.96;83.42;100872.47;5015790;28;20168;-87
2022/10/14 02:34:24;;;;;;;28.42;19.25;;;;;;;9.98;83.54;100875.03;5026851;28;20046;-87
2022/10/14 02:36:53;;;;;;;25.42;16.95;;;;;;;9.86;83.82;100872.13;5003353;28;20033;-86
2022/10/14 02:39:27;;;;;;;28.35;19.65;;;;;;;9.89;84.14;100863.19;4999814;28;20048;-86
2022/10/14 02:41:54;;;;;;;28.75;18.60;;;;;;;9.93;84.55;100866.53;4990921;28;20057;-84
2022/10/14 02:44:22;;;;;;;26.40;18.92;;;;;;;9.93;85.10;100872.63;4990184;28;20126;-84
2022/10/14 02:46:49;;;;;;;30.88;21.10;;;;;;;9.87;85.30;100867.69;5009791;28;20050;-84
2022/10/14 02:49:18;;;;;;;28.77;18.33;;;;;;;9.83;85.97;100868.78;5002606;28;20538;-86
2022/10/14 02:51:45;;;;;;;25.45;17.25;;;;;;;9.85;85.90;100865.13;4999398;28;20129;-86
2022/10/14 02:54:13;;;;;;;28.10;16.55;;;;;;;9.88;85.18;100869.41;4998598;28;20042;-86
2022/10/14 02:56:40;;;;;;;22.55;17.05;;;;;;;9.85;85.09;100867.75;5008996;28;20053;-87
2022/10/14 02:59:07;;;;;;;22.13;17.33;;;;;;;9.87;85.15;100872.97;5014730;28;20060;-86
2022/10/14 03:01:34;;;;;;;23.77;16.90;;;;;;;9.85;85.27;100878.28;5000070;28;20046;-86
2022/10/14 03:04:04;;;;;;;28.67;19.25;;;;;;;9.85;84.76;100861.66;4990329;28;20053;-86
2022/10/14 03:06:31;;;;;;;27.90;15.65;;;;;;;9.84;85.20;100871.31;5014254;28;20089;-87
2022/10/14 03:08:58;;;;;;;24.67;16.35;;;;;;;9.87;84.67;100862.44;5017650;28;20042;-87
2022/10/14 03:11:25;;;;;;;27.52;17.65;;;;;;;9.85;85.41;100849.34;4996024;28;20058;-85
2022/10/14 03:13:53;;;;;;;27.13;15.85;;;;;;;9.84;86.05;100845.03;4988997;28;20042;-86
2022/10/14 03:16:20;;;;;;;21.98;15.68;;;;;;;9.91;86.23;100842.94;4984738;28;20042;-87
2022/10/14 03:18:47;;;;;;;20.27;15.25;;;;;;;9.97;86.19;100845.25;4983231;28;20042;-88
2022/10/14 03:21:14;;;;;;;22.83;15.23;;;;;;;10.01;86.13;100844.16;4978752;28;20042;-84
2022/10/14 03:23:41;;;;;;;21.27;14.30;;;;;;;10.04;85.94;100845.75;4999122;28;20129;-84
2022/10/14 03:26:09;;;;;;;22.85;14.43;;;;;;;10.06;85.21;100839.50;5013012;28;20073;-84
2022/10/14 03:28:40;;;;;;;20.17;14.50;;;;;;;10.09;85.49;100839.34;5041738;28;20124;-85
2022/10/14 03:31:07;;;;;;;20.75;14.30;;;;;;;10.12;86.00;100831.25;4997223;28;20042;-82
2022/10/14 03:33:36;;;;;;;19.23;13.77;;;;;;;10.13;85.61;100833.00;5018947;28;20038;-83
2022/10/14 03:36:03;;;;;;;24.63;14.93;;;;;;;10.14;85.40;100831.19;5007490;28;20045;-83
2022/10/14 03:38:30;;;;;;;21.42;14.98;;;;;;;10.12;85.62;100838.31;5029444;28;20112;-85
2022/10/14 03:40:57;;;;;;;21.58;15.63;;;;;;;10.08;85.56;100828.88;4995488;28;20115;-85
2022/10/14 03:43:25;;;;;;;22.52;14.15;;;;;;;10.04;85.65;100825.59;4997332;28;20038;-84
2022/10/14 03:45:52;;;;;;;20.50;14.60;;;;;;;10.06;86.16;100828.97;5034548;28;20109;-83
2022/10/14 03:48:19;;;;;;;21.38;14.18;;;;;;;10.09;86.49;100834.09;5027602;28;20025;-83
2022/10/14 03:50:47;;;;;;;21.88;14.52;;;;;;;10.02;86.44;100832.69;5004802;28;20022;-80
2022/10/14 03:53:14;;;;;;;21.67;14.18;;;;;;;9.97;86.52;100828.63;5007836;28;20567;-85
2022/10/14 03:55:41;;;;;;;22.73;14.27;;;;;;;9.95;86.44;100825.19;4990007;28;20054;-83
2022/10/14 03:58:10;;;;;;;22.85;14.50;;;;;;;9.90;86.20;100828.94;4986381;28;20038;-85
2022/10/14 04:00:37;;;;;;;19.33;14.20;;;;;;;9.88;86.01;100827.31;5003831;28;20137;-85
2022/10/14 04:03:04;;;;;;;23.70;15.50;;;;;;;9.91;86.25;100827.16;4979027;28;20042;-84
2022/10/14 04:05:33;;;;;;;23.45;14.35;;;;;;;9.92;86.48;100835.91;5019486;28;20105;-85
2022/10/14 04:08:00;;;;;;;25.48;15.77;;;;;;;9.90;86.53;100834.19;4997212;28;20050;-83
2022/10/14 04:10:28;;;;;;;22.08;15.02;;;;;;;9.87;86.32;100829.09;5010011;28;20186;-84
2022/10/14 04:12:55;;;;;;;23.65;14.60;;;;;;;9.88;86.72;100827.31;5012563;28;20122;-84
2022/10/14 04:15:23;;;;;;;26.08;16.10;;;;;;;9.95;88.63;100814.69;4992287;28;20667;-83
2022/10/14 04:17:50;;;;;;;21.30;14.77;;;;;;;10.02;89.81;100826.59;4992332;28;20106;-83
2022/10/14 04:20:18;;;;;;;22.63;15.38;;;;;;;10.01;88.85;100828.38;5005737;28;20049;-84
2022/10/14 04:22:45;;;;;;;24.80;16.08;;;;;;;9.88;88.57;100820.28;5000219;28;20057;-85
2022/10/14 04:25:12;;;;;;;22.67;16.95;;;;;;;9.76;90.43;100820.06;5012860;28;20048;-83
2022/10/14 04:27:39;;;;;;;25.50;16.80;;;;;;;9.63;90.41;100825.09;4978350;28;20058;-85
2022/10/14 04:30:07;;;;;;;25.95;16.75;;;;;;;9.63;90.25;100822.47;4992043;28;20060;-84
2022/10/14 04:32:34;;;;;;;27.30;17.85;;;;;;;9.67;90.08;100813.50;5008791;28;20069;-84
2022/10/14 04:35:01;;;;;;;29.00;15.68;;;;;;;9.73;89.91;100809.75;5012635;28;20415;-84
2022/10/14 04:37:29;;;;;;;22.35;15.43;;;;;;;9.75;89.44;100813.97;5005813;28;20120;-83
2022/10/14 04:39:56;;;;;;;22.25;14.70;;;;;;;9.78;89.47;100816.44;4996232;28;20100;-84
2022/10/14 04:42:24;;;;;;;26.90;15.45;;;;;;;9.80;88.94;100806.69;4997742;28;20060;-83
2022/10/14 04:44:51;;;;;;;23.15;15.20;;;;;;;9.74;88.50;100801.75;5015602;28;20068;-86
2022/10/14 04:47:19;;;;;;;24.10;14.60;;;;;;;9.71;88.36;100801.91;5003594;28;20062;-83
2022/10/14 04:49:46;;;;;;;22.58;15.60;;;;;;;9.73;88.62;100800.06;5018179;28;20122;-85
2022/10/14 04:52:13;;;;;;;24.50;14.57;;;;;;;9.76;88.72;100788.53;4999572;28;20060;-85
2022/10/14 04:54:41;;;;;;;23.90;16.80;;;;;;;9.78;89.10;100797.19;4979723;28;20050;-84
2022/10/14 04:57:08;;;;;;;19.27;13.98;;;;;;;9.70;89.22;100794.97;4999242;28;20041;-82
2022/10/14 04:59:37;;;;;;;23.52;18.00;;;;;;;9.57;90.20;100805.25;4975472;28;20109;-84
2022/10/14 05:02:04;;;;;;;26.10;14.18;;;;;;;9.44;90.28;100796.31;4991758;28;20085;-84
2022/10/14 05:04:32;;;;;;;25.20;15.25;;;;;;;9.48;89.77;100799.63;4977343;28;20393;-85
2022/10/14 05:06:59;;;;;;;25.98;16.33;;;;;;;9.51;89.73;100796.84;4999605;28;20042;-84
2022/10/14 05:09:26;;;;;;;26.67;14.77;;;;;;;9.56;89.64;100800.94;4988239;28;20110;-85
2022/10/14 05:11:53;;;;;;;24.02;16.23;;;;;;;9.60;89.02;100801.63;5007185;28;20045;-82
2022/10/14 05:14:21;;;;;;;21.77;15.02;;;;;;;9.62;89.21;100797.97;5011069;28;20090;-82
2022/10/14 05:16:48;;;;;;;23.38;14.82;;;;;;;9.69;89.19;100803.78;5008855;28;20076;-83
2022/10/14 05:19:16;;;;;;;19.25;15.45;;;;;;;9.69;88.76;100800.31;5007170;28;20034;-83
2022/10/14 05:21:43;;;;;;;20.60;15.02;;;;;;;9.66;88.75;100800.47;4996626;28;20144;-85
2022/10/14 05:24:10;;;;;;;17.80;14.02;;;;;;;9.68;88.60;100794.22;4990925;28;20051;-86
2022/10/14 05:26:37;;;;;;;24.40;15.88;;;;;;;9.72;89.16;100800.13;5016709;28;20141;-82
2022/10/14 05:29:04;;;;;;;21.63;15.20;;;;;;;9.70;88.73;100802.00;5008309;28;20043;-85
2022/10/14 05:31:32;;;;;;;24.15;15.07;;;;;;;9.70;88.44;100802.00;4996721;28;20089;-84
2022/10/14 05:33:59;;;;;;;22.20;15.25;;;;;;;9.70;88.36;100799.38;5007927;28;20050;-84
2022/10/14 05:36:26;;;;;;;22.65;14.95;;;;;;;9.71;88.85;100795.81;5001349;28;20077;-84
2022/10/14 05:38:57;;;;;;;21.23;14.38;;;;;;;9.74;89.42;100790.41;5008552;28;20026;-84
2022/10/14 05:41:25;;;;;;;20.60;14.27;;;;;;;9.77;88.66;100790.22;5008229;28;20049;-83
2022/10/14 05:43:52;;;;;;;28.00;16.13;;;;;;;9.82;88.79;100793.47;4991837;28;20066;-83
2022/10/14 05:46:20;;;;;;;20.05;14.10;;;;;;;9.85;88.82;100788.88;5008453;28;20060;-83
2022/10/14 05:48:47;;;;;;;25.40;13.80;;;;;;;9.90;89.43;100793.88;5027322;28;20112;-84
2022/10/14 05:51:19;;;;;;;25.85;15.13;;;;;;;9.93;89.79;100795.53;5010754;28;20058;-85
2022/10/14 05:53:47;;;;;;;29.35;15.05;;;;;;;9.99;90.23;100795.19;5002763;28;20076;-84
2022/10/14 05:56:14;;;;;;;21.08;14.07;;;;;;;10.01;90.67;100790.72;5017299;28;20556;-84
2022/10/14 05:58:41;;;;;;;22.60;14.20;;;;;;;10.02;89.87;100793.25;5017790;28;20060;-84
2022/10/14 06:01:10;;;;;;;21.40;14.65;;;;;;;10.06;91.10;100786.88;5002096;28;20034;-84
2022/10/14 06:03:37;;;;;;;21.48;13.50;;;;;;;10.11;91.72;100791.91;5012044;28;20085;-84
2022/10/14 06:06:04;;;;;;;21.98;14.10;;;;;;;10.12;91.80;100793.59;4976120;28;20120;-83
2022/10/14 06:08:31;;;;;;;25.15;15.73;;;;;;;10.13;91.48;100788.25;5001086;28;20422;-83
2022/10/14 06:11:01;;;;;;;23.40;14.55;;;;;;;10.14;91.18;100791.75;4997217;28;20080;-82
2022/10/14 06:13:29;;;;;;;21.85;13.75;;;;;;;10.15;91.26;100791.66;5007413;28;20056;-81
2022/10/14 06:16:05;;;;;;;22.77;14.38;;;;;;;10.17;91.50;100786.28;5000388;28;20102;-82
2022/10/14 06:18:33;;;;;;;22.90;14.45;;;;;;;10.22;91.74;100793.94;4992585;28;20049;-81
2022/10/14 06:21:00;;;;;;;29.13;14.95;;;;;;;10.25;92.65;100797.28;4983026;28;20058;-82
2022/10/14 06:23:28;;;;;;;23.27;14.15;;;;;;;10.28;92.86;100793.66;5005196;28;20055;-82
2022/10/14 06:25:55;;;;;;;24.95;14.30;;;;;;;10.28;93.26;100793.66;4982866;28;20053;-83
2022/10/14 06:28:22;;;;;;;24.90;14.45;;;;;;;10.31;93.43;100799.59;4978126;28;20042;-82
2022/10/14 06:30:53;;;;;;;31.00;16.52;;;;;;;10.33;93.39;100788.97;5032836;28;20117;-81
2022/10/14 06:33:21;;;;;;;21.65;15.48;;;;;;;10.35;93.17;100785.31;5031351;28;20062;-80
2022/10/14 06:35:49;;;;;;;28.95;16.83;;;;;;;10.36;92.93;100800.19;5010123;28;20049;-82
2022/10/14 06:38:17;;;;;;;24.38;16.08;;;;;;;10.34;92.64;100795.94;5000556;28;20108;-82
2022/10/14 06:40:44;;;;;;;26.67;15.40;;;;;;;10.31;93.35;100803.97;5027693;28;20132;-80
2022/10/14 06:43:11;;;;;;;24.60;15.65;;;;;;;10.36;93.89;100794.09;4994056;28;20066;-82
2022/10/14 06:45:38;;;;;;;23.90;16.05;;;;;;;10.39;93.55;100797.38;4977287;28;20145;-82
2022/10/14 06:48:06;;;;;;;23.13;15.55;;;;;;;10.38;92.95;100793.03;4977389;28;20485;-82
2022/10/14 06:50:33;;;;;;;30.00;17.40;;;;;;;10.45;93.62;100795.34;4993419;28;20109;-81
2022/10/14 06:53:01;;;;;;;24.83;15.80;;;;;;;10.50;94.24;100801.22;5010743;28;20100;-83
2022/10/14 06:55:29;;;;;;;23.80;15.80;;;;;;;10.52;93.94;100796.69;5024507;28;20117;-81
2022/10/14 06:57:57;;;;;;;24.73;16.08;;;;;;;10.50;93.93;100795.94;5003449;28;20545;-83
2022/10/14 07:00:24;;;;;;;26.35;16.33;;;;;;;10.51;93.70;100795.84;4990899;28;20066;-83
2022/10/14 07:02:51;;;;;;;23.80;16.02;;;;;;;10.58;94.52;100806.88;4976847;28;20060;-83
2022/10/14 07:05:19;;;;;;;23.27;16.60;;;;;;;10.61;94.79;100807.56;4973290;28;20054;-82
2022/10/14 07:07:46;;;;;;;23.20;15.80;;;;;;;10.64;94.02;100807.38;4982338;28;20122;-83
2022/10/14 07:10:14;;;;;;;31.85;15.38;;;;;;;10.65;94.19;100808.25;5011086;28;20069;-83
2022/10/14 07:12:42;;;;;;;22.73;16.08;;;;;;;10.69;93.60;100811.56;4984044;28;20048;-85
2022/10/14 07:15:09;;;;;;;28.38;15.95;;;;;;;10.72;93.95;100819.28;5007422;28;20058;-81
2022/10/14 07:17:37;;;;;;;29.15;15.40;;;;;;;10.74;93.74;100812.97;5022551;28;20056;-83
2022/10/14 07:20:05;;;;;;;27.77;16.27;;;;;;;10.81;94.84;100816.13;5006913;28;20104;-85
2022/10/14 07:22:35;;;;;;;27.33;16.33;;;;;;;10.82;94.19;100817.81;4994542;28;20050;-83
2022/10/14 07:25:06;;;;;;;26.45;17.38;;;;;;;10.79;94.04;100818.84;4997413;28;20050;-82
2022/10/14 07:27:33;;;;;;;24.50;16.35;;;;;;;10.80;94.37;100817.88;4998888;28;20060;-82
2022/10/14 07:30:03;;;;;;;26.23;16.15;;;;;;;10.83;94.40;100819.50;5002164;28;20053;-84
2022/10/14 07:32:52;;;;;;;26.35;15.77;;;;;;;10.85;93.53;100820.25;5009946;28;20052;-89
2022/10/14 07:35:27;;;;;;;25.25;15.50;;;;;;;10.88;93.63;100813.03;4993984;28;20045;-85
2022/10/14 07:37:56;;;;;;;26.55;16.45;;;;;;;10.95;93.88;100813.56;4991501;28;20054;-83
2022/10/14 07:40:23;;;;;;;28.85;17.33;;;;;;;10.98;94.07;100818.63;4992715;28;20037;-84
2022/10/14 07:42:50;;;;;;;28.10;16.38;;;;;;;11.00;93.86;100826.47;5016206;28;20113;-83
2022/10/14 07:45:19;;;;;;;28.42;17.90;;;;;;;11.01;93.54;100818.47;5002804;28;20049;-84
2022/10/14 07:47:49;;;;;;;33.45;17.17;;;;;;;11.03;94.02;100827.13;5008298;28;20034;-84
2022/10/14 07:50:16;;;;;;;31.50;17.85;;;;;;;11.00;95.26;100822.03;5007486;28;20352;-85
2022/10/14 07:52:44;;;;;;;31.23;17.95;;;;;;;11.02;95.47;100825.41;4980610;28;20049;-83
2022/10/14 07:55:11;;;;;;;26.98;17.45;;;;;;;11.05;96.62;100817.34;5011739;28;20045;-83
2022/10/14 07:57:38;;;;;;;26.40;17.65;;;;;;;11.06;96.53;100824.31;5014217;28;20050;-82
2022/10/14 08:00:08;;;;;;;25.42;17.50;;;;;;;11.14;96.15;100818.59;5006276;28;20304;-82
2022/10/14 08:02:36;;;;;;;31.85;18.45;;;;;;;11.19;95.94;100815.69;5028099;28;20466;-82
2022/10/14 08:05:03;;;;;;;20.98;15.50;;;;;;;11.23;95.58;100811.94;5024808;28;20728;-81
2022/10/14 08:07:50;;;;;;;26.40;17.80;;;;;;;11.30;95.57;100819.41;5012651;28;20114;-86
2022/10/14 08:10:18;;;;;;;33.35;19.90;;;;;;;11.37;97.02;100819.88;5017290;28;20060;-82
2022/10/14 08:12:46;;;;;;;28.25;16.17;;;;;;;11.38;95.85;100819.78;5002379;28;20070;-84
2022/10/14 08:15:13;;;;;;;25.75;16.48;;;;;;;11.46;96.14;100823.78;4989732;28;20073;-88
2022/10/14 08:17:41;;;;;;;26.77;16.23;;;;;;;11.51;95.97;100829.63;4984025;28;20046;-88
2022/10/14 08:20:09;;;;;;;23.90;15.85;;;;;;;11.53;95.50;100817.22;4984041;28;20058;-87
2022/10/14 08:22:38;;;;;;;27.48;17.27;;;;;;;11.56;95.40;100817.84;4995137;28;20041;-84
2022/10/14 08:25:05;;;;;;;27.25;19.02;;;;;;;11.61;95.26;100817.56;5015738;28;20543;-85
2022/10/14 08:27:33;;;;;;;28.67;18.92;;;;;;;11.64;95.60;100820.88;5003497;28;20419;-87
2022/10/14 08:30:04;;;;;;;25.27;16.80;;;;;;;11.65;95.46;100819.94;4992876;28;20129;-85
2022/10/14 08:32:37;;;;;;;33.97;18.63;;;;;;;11.72;95.41;100809.88;5015929;28;20113;-86
2022/10/14 08:35:05;;;;;;;31.80;18.10;;;;;;;11.79;95.33;100803.25;4995006;28;20054;-85
2022/10/14 08:37:32;;;;;;;29.33;19.10;;;;;;;11.87;94.74;100802.84;5004047;28;20067;-85
2022/10/14 08:39:59;;;;;;;26.13;16.85;;;;;;;11.99;95.14;100798.59;4993657;28;20088;-85
2022/10/14 08:42:48;;;;;;;30.77;17.83;;;;;;;12.05;94.22;100801.69;4989030;28;20190;-83
2022/10/14 08:45:31;;;;;;;27.85;16.85;;;;;;;12.15;94.23;100808.09;5005142;28;20092;-83
2022/10/14 08:48:03;;;;;;;25.20;17.40;;;;;;;12.29;94.08;100798.47;4985464;28;20686;-84
2022/10/14 08:50:47;;;;;;;28.48;16.60;;;;;;;12.40;93.77;100799.47;5010209;28;20061;-83
2022/10/14 08:53:21;;;;;;;29.38;18.25;;;;;;;12.54;93.46;100793.31;5000623;28;20046;-83
2022/10/14 08:55:56;;;;;;;30.13;19.40;;;;;;;12.67;93.25;100785.44;4992808;28;20114;-83
2022/10/14 08:58:45;;;;;;;27.83;17.23;;;;;;;12.78;92.70;100785.59;4992359;28;20101;-85
2022/10/14 09:01:24;;;;;;;22.85;16.50;;;;;;;12.93;91.87;100789.03;4995841;28;20058;-84
2022/10/14 09:04:02;;;;;;;29.38;17.48;;;;;;;13.06;91.24;100787.28;5001989;28;20038;-82
2022/10/14 09:06:31;;;;;;;24.98;16.63;;;;;;;13.16;91.34;100780.41;5019281;28;20073;-82
2022/10/14 09:09:17;;;;;;;31.33;18.17;;;;;;;13.28;90.55;100785.84;5015166;28;20034;-81
2022/10/14 09:11:47;;;;;;;25.92;16.70;;;;;;;13.37;90.65;100783.44;5024385;28;20054;-82
2022/10/14 09:14:17;;;;;;;25.25;16.48;;;;;;;13.45;90.16;100788.19;4999441;28;20049;-82
2022/10/14 09:16:46;;;;;;;26.10;17.27;;;;;;;13.55;89.34;100791.88;5033580;28;20081;-82
2022/10/14 09:19:31;;;;;;;26.60;16.55;;;;;;;13.65;89.21;100786.84;4985908;28;20042;-83
2022/10/14 09:22:00;;;;;;;27.83;17.00;;;;;;;13.74;89.06;100780.91;5003823;28;20034;-83
2022/10/14 09:24:35;;;;;;;28.67;18.27;;;;;;;13.81;88.04;100792.75;4996264;28;20038;-83
2022/10/14 09:27:07;;;;;;;;;;;;;;;13.88;87.65;100779.94;5008446;28;20053;-81
2022/10/14 09:29:47;;;;;;;30.23;16.73;;;;;;;14.00;87.49;100781.69;5028099;28;19931;-86
2022/10/14 09:36:30;;;;;;;24.85;16.10;;;;;;;14.27;86.03;100778.88;5013723;28;20144;-82
2022/10/14 09:38:57;;;;;;;26.45;17.15;;;;;;;14.38;85.99;100780.78;4997405;28;20142;-82
2022/10/14 09:41:32;;;;;;;27.92;15.57;;;;;;;14.50;85.02;100784.34;5018741;28;20064;-82
2022/10/14 09:44:24;;;;;;;24.05;14.70;;;;;;;14.59;84.44;100778.38;5008079;28;20072;-83
2022/10/14 09:46:57;;;;;;;25.05;15.27;;;;;;;14.63;84.34;100767.47;5005545;28;20402;-83
2022/10/14 09:49:45;;;;;;;22.25;16.73;;;;;;;14.73;84.13;100769.44;5018946;28;20044;-82
2022/10/14 09:52:23;;;;;;;28.70;15.48;;;;;;;14.77;83.38;100773.53;4990783;28;20057;-82
2022/10/14 09:54:56;;;;;;;24.08;15.63;;;;;;;14.82;83.23;100774.06;5006607;28;20061;-83
2022/10/14 09:57:23;;;;;;;29.58;15.18;;;;;;;14.86;83.14;100762.25;4999210;28;20076;-83
2022/10/14 09:59:59;;;;;;;29.13;16.70;;;;;;;14.99;82.81;100763.03;4986329;28;20073;-83
2022/10/14 10:02:42;;;;;;;24.10;16.33;;;;;;;15.11;81.89;100766.56;4978679;28;20042;-82
2022/10/14 10:05:35;;;;;;;26.15;16.95;;;;;;;15.17;81.71;100761.66;5012246;28;20052;-82
2022/10/14 10:08:11;;;;;;;24.23;16.42;;;;;;;15.25;81.50;100765.53;4978535;28;20072;-84
2022/10/14 10:10:39;;;;;;;23.77;16.73;;;;;;;15.33;81.00;100749.88;5009915;28;20042;-83
2022/10/14 10:13:31;;;;;;;23.75;15.45;;;;;;;15.40;80.92;100741.34;4984048;28;20056;-84
2022/10/14 10:16:00;;;;;;;20.02;14.02;;;;;;;15.48;81.17;100739.88;5018321;28;20037;-84
2022/10/14 10:18:28;;;;;;;21.85;14.10;;;;;;;15.54;80.92;100739.41;4985965;28;20540;-82
2022/10/14 10:21:14;;;;;;;25.23;16.10;;;;;;;15.63;80.04;100744.84;5006781;28;20043;-84
2022/10/14 10:23:55;;;;;;;28.15;16.70;;;;;;;15.67;79.23;100750.81;4997744;28;20122;-83
2022/10/14 10:26:30;;;;;;;25.80;16.83;;;;;;;15.72;79.10;100739.81;5005163;28;20036;-84
2022/10/14 10:29:01;;;;;;;22.23;15.00;;;;;;;15.85;78.68;100737.84;5016269;28;20034;-84
2022/10/14 10:31:47;;;;;;;20.98;13.82;;;;;;;15.93;78.90;100733.63;5016243;28;20445;-84
2022/10/14 10:34:23;;;;;;;18.50;12.93;;;;;;;16.00;78.64;100733.16;5008095;28;20029;-83
2022/10/14 10:37:00;;;;;;;22.42;14.63;;;;;;;16.06;77.32;100735.31;5031086;28;20030;-85
2022/10/14 10:39:43;;;;;;;26.05;15.55;;;;;;;16.07;77.58;100742.31;5012560;28;20041;-85
2022/10/14 10:42:28;;;;;;;24.60;15.30;;;;;;;16.09;77.70;100732.44;5013850;28;20049;-84
2022/10/14 10:45:16;;;;;;;20.90;13.75;;;;;;;16.15;77.64;100738.06;5005107;28;20073;-85
2022/10/14 10:47:59;;;;;;;19.90;14.88;;;;;;;16.27;77.02;100738.06;5022375;28;20043;-86
2022/10/14 10:50:34;;;;;;;20.67;13.02;;;;;;;16.27;77.19;100741.56;4997114;28;20044;-86
2022/10/14 10:53:08;;;;;;;19.17;13.27;;;;;;;16.27;77.39;100741.56;5010678;28;20065;-86
2022/10/14 10:55:56;;;;;;;19.13;13.38;;;;;;;16.36;77.20;100739.97;5001392;28;20052;-86
2022/10/14 10:58:39;;;;;;;20.15;13.30;;;;;;;16.36;76.07;100737.31;5015141;28;20053;-86
2022/10/14 11:01:35;;;;;;;20.30;13.93;;;;;;;16.36;76.33;100735.50;4995101;28;20042;-85
2022/10/14 11:04:21;;;;;;;18.55;13.40;;;;;;;16.23;76.58;100728.66;4989365;28;20064;-86
2022/10/14 11:13:45;;;;;;;23.05;15.43;;;;;;;16.29;77.89;100723.69;4981751;28;20046;-86
2022/10/14 11:16:25;;;;;;;17.80;13.02;;;;;;;16.30;77.51;100722.72;5014157;28;20038;-85
2022/10/14 11:19:11;;;;;;;22.88;16.17;;;;;;;16.24;77.35;100715.25;5004098;28;20511;-86
2022/10/14 11:21:44;;;;;;;18.52;13.90;;;;;;;16.24;78.12;100711.75;4981406;28;20042;-85
2022/10/14 11:24:39;;;;;;;20.27;14.68;;;;;;;16.28;78.10;100710.53;5007676;28;20041;-85
2022/10/14 11:27:20;;;;;;;21.58;13.93;;;;;;;16.35;77.85;100714.38;4989178;28;20041;-85
2022/10/14 11:30:08;;;;;;;22.17;13.90;;;;;;;16.38;77.63;100720.25;4985878;28;20289;-86
2022/10/14 11:32:55;;;;;;;28.58;14.88;;;;;;;16.39;76.73;100710.47;5008967;28;20040;-82
2022/10/14 11:35:33;;;;;;;23.92;14.63;;;;;;;16.44;75.75;100713.63;4993995;28;20084;-82
2022/10/14 11:38:18;;;;;;;23.35;14.65;;;;;;;16.41;75.47;100705.91;4987783;28;20042;-82
2022/10/14 11:41:31;;;;;;;19.20;11.82;;;;;;;16.67;74.97;100707.25;5006274;28;20130;-81
2022/10/14 11:44:31;;;;;;;20.13;11.40;;;;;;;16.61;76.08;100697.09;5001347;28;20050;-81
2022/10/14 11:47:04;;;;;;;18.27;13.63;;;;;;;16.69;75.67;100681.38;5013475;28;20063;-80